createdAt,value
2018-04-19T00:00:15.719Z,0
2018-04-19T00:01:30.657Z,0
2018-04-19T00:02:15.763Z,0
2018-04-19T00:03:45.362Z,0
2018-04-19T00:04:15.809Z,0
2018-04-19T00:06:15.592Z,0
2018-04-19T00:07:15.876Z,0
2018-04-19T00:08:16.174Z,0
2018-04-19T00:09:16.176Z,0
2018-04-19T00:10:30.865Z,0
2018-04-19T00:11:30.880Z,0
2018-04-19T00:12:16.256Z,0
2018-04-19T00:13:16.266Z,0
2018-04-19T00:14:16.287Z,0
2018-04-19T00:15:15.792Z,0
2018-04-19T00:16:16.333Z,0
2018-04-19T00:17:15.838Z,0
2018-04-19T00:18:31.038Z,0
2018-04-19T00:19:16.402Z,0
2018-04-19T00:20:16.421Z,0
2018-04-19T00:21:16.187Z,0
2018-04-19T00:22:16.218Z,0
2018-04-19T00:23:16.245Z,0
2018-04-19T00:24:16.512Z,0
2018-04-19T00:25:31.195Z,0
2018-04-19T00:26:16.565Z,0
2018-04-19T00:27:16.581Z,0
2018-04-19T00:28:31.267Z,0
2018-04-19T00:29:16.621Z,0
2018-04-19T00:30:16.648Z,0
2018-04-19T00:32:31.348Z,0
2018-04-19T00:33:16.452Z,0
2018-04-19T00:36:31.175Z,0
2018-04-19T00:37:16.548Z,0
2018-04-19T00:38:16.836Z,0
2018-04-19T00:39:16.590Z,0
2018-04-19T00:40:16.864Z,0
2018-04-19T00:41:16.628Z,0
2018-04-19T00:42:31.569Z,0
2018-04-19T00:43:16.930Z,0
2018-04-19T00:44:16.716Z,0
2018-04-19T00:45:16.976Z,0
2018-04-19T00:46:17.000Z,0
2018-04-19T00:47:16.759Z,0
2018-04-19T00:48:17.054Z,0
2018-04-19T00:49:31.721Z,0
2018-04-19T00:50:31.760Z,0
2018-04-19T00:51:17.114Z,0
2018-04-19T00:52:17.139Z,0
2018-04-19T00:53:17.151Z,0
2018-04-19T00:54:17.175Z,0
2018-04-19T00:55:17.199Z,0
2018-04-19T00:56:17.228Z,0
2018-04-19T00:57:17.237Z,0
2018-04-19T00:58:17.269Z,0
2018-04-19T00:59:31.950Z,0
2018-04-19T01:00:17.307Z,0
2018-04-19T01:01:17.066Z,0
2018-04-19T01:02:17.355Z,0
2018-04-19T01:03:17.372Z,0
2018-04-19T01:04:17.394Z,0
2018-04-19T01:05:17.417Z,0
2018-04-19T01:06:46.756Z,0
2018-04-19T01:07:17.469Z,0
2018-04-19T01:08:17.481Z,0
2018-04-19T01:09:17.244Z,0
2018-04-19T01:10:17.338Z,0
2018-04-19T01:11:17.286Z,0
2018-04-19T01:12:32.232Z,0
2018-04-19T01:13:17.591Z,0
2018-04-19T01:14:17.630Z,0
2018-04-19T01:15:17.633Z,0
2018-04-19T01:16:17.658Z,0
2018-04-19T01:17:17.423Z,0
2018-04-19T01:18:17.700Z,0
2018-04-19T01:19:17.944Z,0
2018-04-19T01:20:17.746Z,0
2018-04-19T01:21:17.772Z,0
2018-04-19T01:22:32.191Z,0
2018-04-19T01:23:17.823Z,0
2018-04-19T01:25:17.853Z,0
2018-04-19T01:26:17.875Z,0
2018-04-19T01:27:17.908Z,0
2018-04-19T01:28:17.926Z,0
2018-04-19T01:29:17.957Z,0
2018-04-19T01:30:17.961Z,0
2018-04-19T01:32:32.415Z,0
2018-04-19T01:33:17.771Z,0
2018-04-19T01:34:32.713Z,0
2018-04-19T01:35:32.732Z,0
2018-04-19T01:36:17.836Z,0
2018-04-19T01:37:18.133Z,0
2018-04-19T01:38:47.456Z,0
2018-04-19T01:39:18.160Z,0
2018-04-19T01:40:18.190Z,0
2018-04-19T01:41:18.201Z,0
2018-04-19T01:42:18.224Z,0
2018-04-19T01:43:18.247Z,0
2018-04-19T01:44:18.269Z,0
2018-04-19T01:45:32.948Z,0
2018-04-19T01:46:18.315Z,0
2018-04-19T01:47:18.335Z,0
2018-04-19T01:48:18.100Z,0
2018-04-19T01:49:18.387Z,0
2018-04-19T01:50:18.403Z,0
2018-04-19T01:51:18.179Z,0
2018-04-19T01:52:18.452Z,0
2018-04-19T01:54:18.492Z,0
2018-04-19T01:55:18.511Z,0
2018-04-19T01:56:18.269Z,0
2018-04-19T01:57:18.299Z,0
2018-04-19T01:58:18.314Z,0
2018-04-19T01:59:18.598Z,0
2018-04-19T02:00:18.619Z,0
2018-04-19T02:01:18.122Z,0
2018-04-19T02:02:18.665Z,0
2018-04-19T02:03:18.685Z,0
2018-04-19T02:04:18.714Z,0
2018-04-19T02:05:18.726Z,0
2018-04-19T02:06:18.488Z,0
2018-04-19T02:07:18.958Z,0
2018-04-19T02:08:18.803Z,0
2018-04-19T02:09:18.814Z,0
2018-04-19T02:10:18.837Z,0
2018-04-19T02:11:18.857Z,0
2018-04-19T02:12:18.877Z,0
2018-04-19T02:13:18.645Z,0
2018-04-19T02:14:33.061Z,0
2018-04-19T02:15:33.601Z,0
2018-04-19T02:16:33.364Z,0
2018-04-19T02:17:18.728Z,0
2018-04-19T02:18:19.007Z,0
2018-04-19T02:22:19.096Z,0
2018-04-19T02:23:19.122Z,0
2018-04-19T02:24:19.140Z,0
2018-04-19T02:25:48.477Z,0
2018-04-19T02:26:18.928Z,0
2018-04-19T02:27:19.220Z,0
2018-04-19T02:28:19.228Z,0
2018-04-19T02:29:19.247Z,0
2018-04-19T02:30:19.269Z,0
2018-04-19T02:31:19.292Z,0
2018-04-19T02:32:19.065Z,0
2018-04-19T02:33:19.341Z,0
2018-04-19T02:34:19.105Z,0
2018-04-19T02:35:19.141Z,0
2018-04-19T02:36:19.395Z,0
2018-04-19T02:37:19.420Z,0
2018-04-19T02:38:34.098Z,0
2018-04-19T02:39:19.471Z,0
2018-04-19T02:40:33.884Z,0
2018-04-19T02:41:33.904Z,0
2018-04-19T02:42:19.529Z,0
2018-04-19T02:43:19.569Z,0
2018-04-19T02:44:19.570Z,0
2018-04-19T02:45:19.360Z,0
2018-04-19T02:46:19.360Z,0
2018-04-19T02:47:19.641Z,0
2018-04-19T02:48:34.311Z,0
2018-04-19T02:49:19.679Z,0
2018-04-19T02:50:19.696Z,0
2018-04-19T02:51:19.716Z,0
2018-04-19T02:52:19.760Z,0
2018-04-19T02:53:19.502Z,0
2018-04-19T02:54:19.780Z,0
2018-04-19T02:55:19.813Z,0
2018-04-19T02:56:19.835Z,0
2018-04-19T02:57:34.525Z,0
2018-04-19T02:58:19.871Z,0
2018-04-19T02:59:19.629Z,0
2018-04-19T03:00:19.911Z,0
2018-04-19T03:01:19.678Z,0
2018-04-19T03:02:34.353Z,0
2018-04-19T03:03:19.974Z,0
2018-04-19T03:04:19.748Z,0
2018-04-19T03:05:20.018Z,0
2018-04-19T03:06:20.038Z,0
2018-04-19T03:07:20.066Z,0
2018-04-19T03:08:19.831Z,0
2018-04-19T03:09:20.104Z,0
2018-04-19T03:10:19.888Z,0
2018-04-19T03:11:20.144Z,0
2018-04-19T03:12:34.573Z,0
2018-04-19T03:13:34.846Z,0
2018-04-19T03:14:20.218Z,0
2018-04-19T03:15:20.236Z,0
2018-04-19T03:16:20.244Z,0
2018-04-19T03:17:34.936Z,0
2018-04-19T03:18:20.037Z,0
2018-04-19T03:19:20.310Z,0
2018-04-19T03:20:34.731Z,4
2018-04-19T03:21:20.359Z,4
2018-04-19T03:22:20.373Z,0
2018-04-19T03:23:34.794Z,0
2018-04-19T03:24:20.417Z,4
2018-04-19T03:25:20.437Z,4
2018-04-19T03:26:35.118Z,4
2018-04-19T03:27:20.490Z,4
2018-04-19T03:28:49.820Z,8
2018-04-19T03:29:20.009Z,4
2018-04-19T03:30:20.320Z,4
2018-04-19T03:31:20.576Z,8
2018-04-19T03:32:20.329Z,12
2018-04-19T03:33:20.360Z,8
2018-04-19T03:34:20.628Z,12
2018-04-19T03:35:20.661Z,16
2018-04-19T03:36:20.670Z,16
2018-04-19T03:37:20.175Z,20
2018-04-19T03:38:35.116Z,24
2018-04-19T03:39:35.396Z,28
2018-04-19T03:40:20.755Z,32
2018-04-19T03:41:20.774Z,36
2018-04-19T03:44:20.581Z,56
2018-04-19T03:45:20.861Z,64
2018-04-19T03:46:20.882Z,72
2018-04-19T03:47:20.643Z,80
2018-04-19T03:48:20.927Z,92
2018-04-19T03:49:20.941Z,104
2018-04-19T03:50:21.069Z,116
2018-04-19T03:51:35.643Z,132
2018-04-19T03:52:35.665Z,148
2018-04-19T03:53:20.776Z,164
2018-04-19T03:54:21.046Z,180
2018-04-19T03:55:20.810Z,200
2018-04-19T03:56:35.751Z,224
2018-04-19T03:57:21.109Z,240
2018-04-19T03:58:35.792Z,272
2018-04-19T03:59:35.555Z,292
2018-04-19T04:00:50.495Z,332
2018-04-19T04:01:21.378Z,344
2018-04-19T04:02:20.960Z,380
2018-04-19T04:03:21.239Z,412
2018-04-19T04:04:21.260Z,448
2018-04-19T04:05:21.285Z,484
2018-04-19T04:06:35.959Z,540
2018-04-19T04:07:35.977Z,584
2018-04-19T04:08:21.344Z,620
2018-04-19T04:09:21.362Z,676
2018-04-19T04:11:21.410Z,788
2018-04-19T04:12:21.166Z,852
2018-04-19T04:13:21.185Z,916
2018-04-19T04:14:21.209Z,984
2018-04-19T04:15:21.500Z,1056
2018-04-19T04:16:36.236Z,1156
2018-04-19T04:17:21.276Z,1216
2018-04-19T04:18:21.296Z,1300
2018-04-19T04:19:21.572Z,1384
2018-04-19T04:20:21.334Z,1468
2018-04-19T04:21:21.619Z,1560
2018-04-19T04:22:36.299Z,1672
2018-04-19T04:23:36.316Z,1764
2018-04-19T04:24:21.680Z,1840
2018-04-19T04:25:21.706Z,1940
2018-04-19T04:26:21.467Z,2036
2018-04-19T04:27:21.739Z,2140
2018-04-19T04:28:21.764Z,2252
2018-04-19T04:29:21.522Z,2356
2018-04-19T04:30:21.803Z,2472
2018-04-19T04:31:22.175Z,2588
2018-04-19T04:32:36.506Z,2736
2018-04-19T04:33:21.865Z,2852
2018-04-19T04:34:21.886Z,3004
2018-04-19T04:35:22.033Z,3136
2018-04-19T04:36:21.672Z,3324
2018-04-19T04:37:21.949Z,3532
2018-04-19T04:38:21.970Z,3592
2018-04-19T04:39:21.993Z,3716
2018-04-19T04:40:22.023Z,3996
2018-04-19T04:41:22.037Z,4208
2018-04-19T04:42:22.068Z,4368
2018-04-19T04:43:21.827Z,4820
2018-04-19T04:44:22.099Z,5228
2018-04-19T04:45:22.122Z,6608
2018-04-19T04:46:36.816Z,10488
2018-04-19T04:47:22.168Z,11968
2018-04-19T04:48:36.591Z,12960
2018-04-19T04:49:22.208Z,13856
2018-04-19T04:50:21.969Z,14304
2018-04-19T04:51:22.246Z,15040
2018-04-19T04:52:22.020Z,15616
2018-04-19T04:53:22.294Z,16704
2018-04-19T04:54:22.314Z,17440
2018-04-19T04:55:36.996Z,17696
2018-04-19T04:56:37.018Z,18176
2018-04-19T04:57:22.125Z,18208
2018-04-19T04:58:22.405Z,19488
2018-04-19T04:59:22.429Z,19648
2018-04-19T05:01:22.222Z,20928
2018-04-19T05:02:37.159Z,22144
2018-04-19T05:03:36.925Z,22976
2018-04-19T05:04:37.221Z,23456
2018-04-19T05:05:22.571Z,23136
2018-04-19T05:06:22.597Z,23136
2018-04-19T05:07:22.629Z,23712
2018-04-19T05:08:22.389Z,24256
2018-04-19T05:09:22.667Z,25056
2018-04-19T05:10:37.360Z,26528
2018-04-19T05:11:22.459Z,26528
2018-04-19T05:12:22.488Z,24096
2018-04-19T05:13:37.173Z,23456
2018-04-19T05:14:22.796Z,26112
2018-04-19T05:15:37.480Z,29248
2018-04-19T05:16:22.850Z,29728
2018-04-19T05:17:22.881Z,25600
2018-04-19T05:18:22.638Z,22016
2018-04-19T05:19:22.926Z,22112
2018-04-19T05:20:23.110Z,25568
2018-04-19T05:21:22.720Z,28800
2018-04-19T05:22:37.700Z,26688
2018-04-19T05:23:22.824Z,27040
2018-04-19T05:24:23.052Z,27232
2018-04-19T05:25:22.814Z,29440
2018-04-19T05:26:22.994Z,31680
2018-04-19T05:27:37.790Z,33440
2018-04-19T05:28:37.817Z,34976
2018-04-19T05:30:23.209Z,35584
2018-04-19T05:31:23.235Z,36832
2018-04-19T05:32:23.255Z,36704
2018-04-19T05:33:23.026Z,36896
2018-04-19T05:35:52.658Z,38688
2018-04-19T05:36:23.365Z,38304
2018-04-19T05:37:23.145Z,36384
2018-04-19T05:38:23.424Z,34720
2018-04-19T05:39:23.189Z,38048
2018-04-19T05:40:23.481Z,39264
2018-04-19T05:41:23.518Z,39776
2018-04-19T05:42:23.016Z,40864
2018-04-19T05:43:23.562Z,41920
2018-04-19T05:45:38.281Z,43648
2018-04-19T05:46:23.394Z,43392
2018-04-19T05:48:38.364Z,42304
2018-04-19T05:50:23.763Z,43488
2018-04-19T05:51:53.112Z,43584
2018-04-19T05:52:23.817Z,45120
2018-04-19T05:53:23.852Z,45696
2018-04-19T05:54:23.646Z,48000
2018-04-19T05:55:23.908Z,46528
2018-04-19T05:56:23.952Z,44960
2018-04-19T05:57:23.973Z,44320
2018-04-19T05:58:23.742Z,46752
2018-04-19T05:59:23.772Z,47584
2018-04-19T06:00:38.718Z,46048
2018-04-19T06:01:24.152Z,46240
2018-04-19T06:02:24.128Z,46912
2018-04-19T06:04:24.184Z,47520
2018-04-19T06:05:24.216Z,48096
2018-04-19T06:06:24.300Z,46816
2018-04-19T06:07:38.937Z,48640
2018-04-19T06:08:24.306Z,49664
2018-04-19T06:09:24.343Z,50496
2018-04-19T06:10:24.369Z,51968
2018-04-19T06:11:24.399Z,53568
2018-04-19T06:12:24.445Z,52864
2018-04-19T06:13:24.475Z,55392
2018-04-19T06:14:24.501Z,54560
2018-04-19T06:15:24.575Z,53088
2018-04-19T06:16:24.310Z,54816
2018-04-19T06:17:24.342Z,54400
2018-04-19T06:18:24.626Z,55104
2018-04-19T06:20:39.404Z,57568
2018-04-19T06:21:24.747Z,58112
2018-04-19T06:22:24.501Z,59232
2018-04-19T06:24:24.566Z,61376
2018-04-19T06:25:24.863Z,57280
2018-04-19T06:26:24.893Z,52352
2018-04-19T06:27:24.932Z,48736
2018-04-19T06:28:24.968Z,47616
2018-04-19T06:29:24.737Z,49536
2018-04-19T06:30:25.238Z,48448
2018-04-19T06:31:25.077Z,52896
2018-04-19T06:32:24.835Z,59840
2018-04-19T06:33:24.867Z,62496
2018-04-19T06:34:24.640Z,64384
2018-04-19T06:35:24.935Z,63552
2018-04-19T06:36:24.984Z,62688
2018-04-19T06:38:54.621Z,64416
2018-04-19T06:39:25.337Z,63904
2018-04-19T06:40:25.365Z,63840
2018-04-19T06:41:25.409Z,66016
2018-04-19T06:42:25.446Z,65152
2018-04-19T06:43:24.951Z,65760
2018-04-19T06:44:25.248Z,66912
2018-04-19T06:45:25.536Z,65568
2018-04-19T06:46:39.973Z,66496
2018-04-19T06:48:40.044Z,66944
2018-04-19T06:49:40.339Z,63520
2018-04-19T06:50:40.372Z,64576
2018-04-19T06:51:40.551Z,64448
2018-04-19T06:52:25.785Z,63232
2018-04-19T06:53:25.857Z,62912
2018-04-19T06:54:25.858Z,65728
2018-04-19T06:55:40.286Z,67040
2018-04-19T06:56:25.919Z,70048
2018-04-19T06:57:25.695Z,68896
2018-04-19T06:59:26.132Z,65760
2018-04-19T07:00:40.721Z,67456
2018-04-19T07:01:25.839Z,67424
2018-04-19T07:02:26.136Z,67840
2018-04-19T07:03:26.179Z,67104
2018-04-19T07:04:25.942Z,67616
2018-04-19T07:05:26.234Z,66912
2018-04-19T07:06:40.935Z,64032
2018-04-19T07:07:26.305Z,64768
2018-04-19T07:08:26.339Z,66112
2018-04-19T07:09:26.383Z,67008
2018-04-19T07:10:40.813Z,66208
2018-04-19T07:11:26.189Z,66752
2018-04-19T07:12:26.236Z,64896
2018-04-19T07:13:26.259Z,63328
2018-04-19T07:14:26.555Z,65664
2018-04-19T07:15:26.074Z,68288
2018-04-19T07:16:26.672Z,68288
2018-04-19T07:17:26.662Z,67712
2018-04-19T07:18:26.791Z,66752
2018-04-19T07:19:26.477Z,68192
2018-04-19T07:20:26.509Z,65632
2018-04-19T07:21:26.810Z,65824
2018-04-19T07:22:26.579Z,67360
2018-04-19T07:23:26.615Z,69120
2018-04-19T07:24:26.653Z,68704
2018-04-19T07:25:26.698Z,67040
2018-04-19T07:26:41.673Z,67680
2018-04-19T07:27:27.066Z,67392
2018-04-19T07:28:27.085Z,65440
2018-04-19T07:29:26.855Z,63264
2018-04-19T07:30:27.144Z,64032
2018-04-19T07:31:26.903Z,64416
2018-04-19T07:32:27.337Z,63392
2018-04-19T07:33:26.973Z,63392
2018-04-19T07:34:41.670Z,62720
2018-04-19T07:35:27.304Z,62016
2018-04-19T07:36:41.783Z,62144
2018-04-19T07:37:27.385Z,62944
2018-04-19T07:38:27.412Z,60608
2018-04-19T07:39:26.928Z,61472
2018-04-19T07:40:27.230Z,63456
2018-04-19T07:41:27.265Z,61824
2018-04-19T07:42:41.700Z,60512
2018-04-19T07:43:41.994Z,57088
2018-04-19T07:44:27.647Z,58592
2018-04-19T07:45:27.410Z,62336
2018-04-19T07:46:27.697Z,60128
2018-04-19T07:47:27.472Z,62880
2018-04-19T07:48:27.777Z,62304
2018-04-19T07:49:27.585Z,59232
2018-04-19T07:50:42.501Z,58272
2018-04-19T07:51:28.035Z,57440
2018-04-19T07:52:27.911Z,56832
2018-04-19T07:53:27.960Z,56960
2018-04-19T07:54:27.462Z,58208
2018-04-19T07:55:28.023Z,56512
2018-04-19T07:56:42.715Z,58592
2018-04-19T07:57:28.091Z,56224
2018-04-19T07:58:57.451Z,58464
2018-04-19T07:59:27.645Z,61344
2018-04-19T08:00:28.201Z,60864
2018-04-19T08:01:27.978Z,56128
2018-04-19T08:02:28.270Z,55840
2018-04-19T08:03:28.041Z,57824
2018-04-19T08:04:28.076Z,57984
2018-04-19T08:05:28.536Z,57504
2018-04-19T08:06:28.151Z,56704
2018-04-19T08:07:28.450Z,55328
2018-04-19T08:08:28.220Z,58304
2018-04-19T08:09:27.995Z,55840
2018-04-19T08:10:28.292Z,54656
2018-04-19T08:11:43.536Z,57568
2018-04-19T08:12:28.621Z,55872
2018-04-19T08:13:43.061Z,53536
2018-04-19T08:14:28.707Z,56672
2018-04-19T08:15:28.475Z,54240
2018-04-19T08:16:28.779Z,54304
2018-04-19T08:17:28.547Z,55360
2018-04-19T08:18:28.579Z,55072
2018-04-19T08:19:28.872Z,53504
2018-04-19T08:20:28.906Z,53248
2018-04-19T08:21:28.679Z,53344
2018-04-19T08:22:28.974Z,52352
2018-04-19T08:23:29.016Z,52096
2018-04-19T08:24:43.708Z,49536
2018-04-19T08:25:28.827Z,48832
2018-04-19T08:26:28.858Z,48864
2018-04-19T08:27:29.147Z,51744
2018-04-19T08:28:28.665Z,49312
2018-04-19T08:29:29.226Z,48512
2018-04-19T08:30:29.255Z,49856
2018-04-19T08:31:29.034Z,49952
2018-04-19T08:32:43.730Z,48992
2018-04-19T08:33:29.367Z,49632
2018-04-19T08:34:44.056Z,45056
2018-04-19T08:35:29.585Z,45184
2018-04-19T08:36:29.473Z,47360
2018-04-19T08:37:44.164Z,45824
2018-04-19T08:38:29.532Z,46112
2018-04-19T08:39:29.581Z,46560
2018-04-19T08:40:29.607Z,42848
2018-04-19T08:41:29.642Z,41984
2018-04-19T08:42:29.165Z,44224
2018-04-19T08:43:29.704Z,43712
2018-04-19T08:44:29.488Z,43808
2018-04-19T08:45:43.919Z,42528
2018-04-19T08:46:29.569Z,41952
2018-04-19T08:47:29.846Z,39200
2018-04-19T08:48:29.885Z,38560
2018-04-19T08:49:29.919Z,37280
2018-04-19T08:51:29.987Z,23840
2018-04-19T08:52:44.696Z,23040
2018-04-19T08:53:29.794Z,22816
2018-04-19T08:54:30.116Z,22720
2018-04-19T08:55:30.127Z,22528
2018-04-19T08:56:30.290Z,22432
2018-04-19T08:57:29.942Z,21920
2018-04-19T08:58:30.232Z,22112
2018-04-19T08:59:30.302Z,22016
2018-04-19T09:00:44.956Z,21504
2018-04-19T09:03:44.800Z,21440
2018-04-19T09:04:45.106Z,21408
2018-04-19T09:05:45.131Z,21472
2018-04-19T09:06:30.503Z,21472
2018-04-19T09:07:30.278Z,21120
2018-04-19T09:08:30.314Z,21088
2018-04-19T09:09:45.016Z,21024
2018-04-19T09:10:30.384Z,21024
2018-04-19T09:11:30.675Z,20928
2018-04-19T09:12:30.191Z,20736
2018-04-19T09:13:30.797Z,20320
2018-04-19T09:14:30.513Z,20032
2018-04-19T09:16:45.503Z,19968
2018-04-19T09:18:00.201Z,20320
2018-04-19T09:18:30.914Z,20288
2018-04-19T09:19:30.797Z,20192
2018-04-19T09:20:30.981Z,19840
2018-04-19T09:21:30.498Z,19424
2018-04-19T09:22:31.055Z,19200
2018-04-19T09:23:45.486Z,18624
2018-04-19T09:25:31.164Z,18624
2018-04-19T09:26:31.183Z,18944
2018-04-19T09:27:30.958Z,19296
2018-04-19T09:28:30.731Z,19136
2018-04-19T09:29:30.771Z,19008
2018-04-19T09:30:31.067Z,18880
2018-04-19T09:31:31.100Z,18880
2018-04-19T09:32:31.131Z,18624
2018-04-19T09:33:45.823Z,18656
2018-04-19T09:34:31.198Z,18592
2018-04-19T09:35:31.240Z,18496
2018-04-19T09:36:31.524Z,18304
2018-04-19T09:37:31.310Z,18336
2018-04-19T09:38:31.072Z,18176
2018-04-19T09:39:31.438Z,17920
2018-04-19T09:40:46.322Z,18112
2018-04-19T09:41:31.692Z,18048
2018-04-19T09:42:31.729Z,17572
2018-04-19T09:43:31.499Z,17568
2018-04-19T09:44:31.535Z,17492
2018-04-19T09:45:31.829Z,17292
2018-04-19T09:46:31.866Z,16924
2018-04-19T09:47:31.377Z,17100
2018-04-19T09:48:46.588Z,17204
2018-04-19T09:50:46.397Z,16812
2018-04-19T09:51:32.029Z,16840
2018-04-19T09:52:32.070Z,16792
2018-04-19T09:53:31.841Z,17044
2018-04-19T09:54:31.609Z,16896
2018-04-19T09:55:32.166Z,16800
2018-04-19T09:56:32.193Z,16756
2018-04-19T09:57:32.229Z,16668
2018-04-19T09:58:32.284Z,16644
2018-04-19T09:59:46.959Z,16284
2018-04-19T10:00:32.335Z,16516
2018-04-19T10:01:32.103Z,16476
2018-04-19T10:02:32.408Z,16532
2018-04-19T10:03:32.426Z,16396
2018-04-19T10:04:32.470Z,16264
2018-04-19T10:05:32.493Z,16284
2018-04-19T10:06:32.270Z,16200
2018-04-19T10:07:32.557Z,16080
2018-04-19T10:08:32.591Z,16084
2018-04-19T10:09:47.320Z,15956
2018-04-19T10:10:32.916Z,15884
2018-04-19T10:11:32.687Z,15880
2018-04-19T10:12:32.722Z,15744
2018-04-19T10:13:32.541Z,15720
2018-04-19T10:14:46.930Z,15692
2018-04-19T10:15:32.301Z,15608
2018-04-19T10:16:32.958Z,15492
2018-04-19T10:17:32.626Z,15496
2018-04-19T10:18:32.922Z,15332
2018-04-19T10:19:32.698Z,15260
2018-04-19T10:20:47.666Z,15144
2018-04-19T10:21:32.992Z,14844
2018-04-19T10:22:33.047Z,14580
2018-04-19T10:23:33.090Z,14532
2018-04-19T10:24:32.853Z,14852
2018-04-19T10:25:33.143Z,14728
2018-04-19T10:26:47.837Z,14620
2018-04-19T10:27:33.385Z,14636
2018-04-19T10:28:33.239Z,14628
2018-04-19T10:29:33.013Z,14392
2018-04-19T10:30:33.310Z,14272
2018-04-19T10:31:33.346Z,14384
2018-04-19T10:32:33.373Z,14464
2018-04-19T10:33:33.142Z,14320
2018-04-19T10:34:32.916Z,14324
2018-04-19T10:35:33.208Z,14264
2018-04-19T10:37:02.817Z,14076
2018-04-19T10:37:33.546Z,14084
2018-04-19T10:38:33.399Z,13988
2018-04-19T10:39:33.337Z,13772
2018-04-19T10:40:33.619Z,13832
2018-04-19T10:42:33.427Z,13328
2018-04-19T10:43:33.460Z,13176
2018-04-19T10:44:48.409Z,13252
2018-04-19T10:45:48.437Z,13460
2018-04-19T10:46:33.843Z,13416
2018-04-19T10:47:33.846Z,13360
2018-04-19T10:48:33.869Z,13240
2018-04-19T10:50:33.925Z,13040
2018-04-19T10:51:33.706Z,12908
2018-04-19T10:52:48.698Z,12744
2018-04-19T10:53:33.242Z,12780
2018-04-19T10:54:33.533Z,12496
2018-04-19T10:55:34.081Z,12252
2018-04-19T10:56:34.106Z,11896
2018-04-19T10:57:33.888Z,11612
2018-04-19T10:58:33.909Z,11364
2018-04-19T10:59:34.202Z,10928
2018-04-19T11:00:33.711Z,10928
2018-04-19T11:01:34.009Z,10696
2018-04-19T11:02:34.287Z,10528
2018-04-19T11:03:34.328Z,10376
2018-04-19T11:04:34.352Z,10180
2018-04-19T11:05:49.039Z,9776
2018-04-19T11:06:34.413Z,9668
2018-04-19T11:07:34.446Z,9576
2018-04-19T11:08:49.132Z,9416
2018-04-19T11:09:34.247Z,9348
2018-04-19T11:11:34.556Z,9072
2018-04-19T11:12:49.244Z,8904
2018-04-19T11:13:34.614Z,8824
2018-04-19T11:14:34.384Z,8672
2018-04-19T11:15:34.414Z,8572
2018-04-19T11:16:34.443Z,8464
2018-04-19T11:17:34.733Z,8388
2018-04-19T11:18:34.496Z,8300
2018-04-19T11:19:34.787Z,8208
2018-04-19T11:20:34.560Z,8124
2018-04-19T11:21:34.329Z,8036
2018-04-19T11:22:34.712Z,7964
2018-04-19T11:23:49.304Z,7872
2018-04-19T11:24:34.672Z,7808
2018-04-19T11:25:34.443Z,7740
2018-04-19T11:26:34.992Z,7680
2018-04-19T11:27:35.119Z,7616
2018-04-19T11:28:34.790Z,7568
2018-04-19T11:29:35.076Z,7512
2018-04-19T11:30:49.769Z,7416
2018-04-19T11:31:34.874Z,7384
2018-04-19T11:32:49.822Z,7320
2018-04-19T11:33:34.936Z,7292
2018-04-19T11:34:34.959Z,7256
2018-04-19T11:35:35.252Z,7232
2018-04-19T11:36:35.288Z,7204
2018-04-19T11:37:35.045Z,7176
2018-04-19T11:38:35.342Z,7140
2018-04-19T11:40:34.878Z,7084
2018-04-19T11:41:35.430Z,7060
2018-04-19T11:42:35.631Z,7044
2018-04-19T11:43:35.478Z,7020
2018-04-19T11:44:35.504Z,6992
2018-04-19T11:45:35.279Z,6984
2018-04-19T11:46:50.226Z,6968
2018-04-19T11:47:35.332Z,6952
2018-04-19T11:48:35.629Z,6948
2018-04-19T11:49:35.393Z,6936
2018-04-19T11:50:35.418Z,6928
2018-04-19T11:51:35.185Z,6904
2018-04-19T11:52:35.474Z,6892
2018-04-19T11:53:50.421Z,6880
2018-04-19T11:54:35.269Z,6872
2018-04-19T11:56:05.139Z,6868
2018-04-19T11:56:35.586Z,6860
2018-04-19T11:57:35.628Z,6836
2018-04-19T11:58:35.901Z,6812
2018-04-19T11:59:35.672Z,6804
2018-04-19T12:00:35.958Z,6788
2018-04-19T12:01:35.998Z,6776
2018-04-19T12:02:36.059Z,6784
2018-04-19T12:03:36.049Z,6748
2018-04-19T12:04:35.826Z,6664
2018-04-19T12:05:36.105Z,6660
2018-04-19T12:06:35.870Z,6672
2018-04-19T12:07:36.300Z,6664
2018-04-19T12:08:35.667Z,6688
2018-04-19T12:09:35.951Z,6720
2018-04-19T12:10:36.243Z,6736
2018-04-19T12:11:50.668Z,6680
2018-04-19T12:12:36.038Z,6724
2018-04-19T12:13:36.246Z,6780
2018-04-19T12:14:36.353Z,6756
2018-04-19T12:15:36.123Z,6760
2018-04-19T12:16:36.413Z,6744
2018-04-19T12:17:51.104Z,6788
2018-04-19T12:18:36.208Z,6792
2018-04-19T12:19:36.491Z,6784
2018-04-19T12:20:36.006Z,6772
2018-04-19T12:21:36.288Z,6768
2018-04-19T12:22:36.592Z,6772
2018-04-19T12:23:36.705Z,6772
2018-04-19T12:24:36.789Z,6648
2018-04-19T12:25:36.400Z,6776
2018-04-19T12:26:36.429Z,6792
2018-04-19T12:28:36.744Z,6776
2018-04-19T12:29:36.771Z,6744
2018-04-19T12:30:51.463Z,6680
2018-04-19T12:31:36.568Z,6728
2018-04-19T12:32:36.855Z,6716
2018-04-19T12:33:36.894Z,6672
2018-04-19T12:34:36.654Z,6648
2018-04-19T12:35:51.600Z,6620
2018-04-19T12:36:36.709Z,6624
2018-04-19T12:37:36.670Z,6616
2018-04-19T12:39:37.056Z,6572
2018-04-19T12:40:37.083Z,6576
2018-04-19T12:41:51.766Z,6480
2018-04-19T12:42:37.139Z,6320
2018-04-19T12:43:51.825Z,6532
2018-04-19T12:44:36.935Z,6516
2018-04-19T12:45:36.962Z,6504
2018-04-19T12:46:36.985Z,6508
2018-04-19T12:47:37.275Z,6508
2018-04-19T12:48:37.315Z,6468
2018-04-19T12:49:37.098Z,6476
2018-04-19T12:50:37.096Z,6476
2018-04-19T12:51:37.388Z,6496
2018-04-19T12:52:37.419Z,6500
2018-04-19T12:53:37.440Z,6504
2018-04-19T12:54:37.474Z,6548
2018-04-19T12:55:52.157Z,6552
2018-04-19T12:56:37.363Z,6540
2018-04-19T12:57:37.551Z,6600
2018-04-19T12:58:52.245Z,6592
2018-04-19T12:59:37.346Z,6572
2018-04-19T13:00:52.035Z,6628
2018-04-19T13:01:37.662Z,6592
2018-04-19T13:02:37.692Z,6628
2018-04-19T13:03:37.731Z,6652
2018-04-19T13:04:37.756Z,6656
2018-04-19T13:05:37.772Z,6680
2018-04-19T13:06:52.577Z,6628
2018-04-19T13:07:37.573Z,6600
2018-04-19T13:08:37.853Z,6708
2018-04-19T13:09:37.380Z,6700
2018-04-19T13:10:37.918Z,6696
2018-04-19T13:11:37.945Z,6684
2018-04-19T13:12:52.670Z,6612
2018-04-19T13:13:37.746Z,6580
2018-04-19T13:14:52.431Z,6600
2018-04-19T13:15:37.797Z,6576
2018-04-19T13:16:38.088Z,6536
2018-04-19T13:18:38.130Z,6476
2018-04-19T13:19:37.388Z,6488
2018-04-19T13:20:38.188Z,6420
2018-04-19T13:21:38.220Z,6436
2018-04-19T13:22:37.992Z,6548
2018-04-19T13:23:38.117Z,6552
2018-04-19T13:24:52.698Z,6564
2018-04-19T13:25:37.855Z,6564
2018-04-19T13:26:38.353Z,6560
2018-04-19T13:27:38.124Z,6536
2018-04-19T13:28:37.889Z,6572
2018-04-19T13:29:38.175Z,6592
2018-04-19T13:31:07.784Z,6592
2018-04-19T13:31:52.892Z,6584
2018-04-19T13:32:38.262Z,6584
2018-04-19T13:33:53.297Z,5856
2018-04-19T13:34:38.313Z,6516
2018-04-19T13:35:38.354Z,6424
2018-04-19T13:36:38.630Z,6536
2018-04-19T13:37:38.656Z,6592
2018-04-19T13:38:38.686Z,6420
2018-04-19T13:39:38.451Z,6436
2018-04-19T13:40:38.748Z,6588
2018-04-19T13:42:38.797Z,6536
2018-04-19T13:43:38.573Z,6444
2018-04-19T13:44:38.591Z,6292
2018-04-19T13:45:53.536Z,6516
2018-04-19T13:46:53.573Z,6532
2018-04-19T13:47:38.943Z,6360
2018-04-19T13:48:39.012Z,6472
2018-04-19T13:49:38.991Z,6648
2018-04-19T13:50:39.013Z,6644
2018-04-19T13:51:39.048Z,6588
2018-04-19T13:52:53.731Z,6540
2018-04-19T13:53:38.848Z,6520
2018-04-19T13:54:39.126Z,6512
2018-04-19T13:55:39.160Z,6420
2018-04-19T13:58:38.718Z,6592
2018-04-19T13:59:53.925Z,6580
2018-04-19T14:00:39.039Z,6568
2018-04-19T14:01:39.070Z,6592
2018-04-19T14:02:54.004Z,6592
2018-04-19T14:03:39.115Z,6628
2018-04-19T14:04:39.414Z,6588
2018-04-19T14:06:39.202Z,6624
2018-04-19T14:07:39.482Z,6648
2018-04-19T14:08:39.514Z,6672
2018-04-19T14:09:39.022Z,6652
2018-04-19T14:10:39.305Z,6636